Latest Coastal Weather Observations for Hervey Bay

IDQ60701

Issued at 12:32 am EST Thursday 11 August 2022 (issued every 10 minutes, with the page automatically refreshed every 10 minutes)

About coastal observations | Map of coastal stations | Coastal observations for QLD | Marine services | Other Formats
Station Details ID: 040405 Name: HERVEY BAY AIRPORT Lat: -25.32 Lon: 152.88 Height: 12.98 m
Data from the previous 72 hours. | See also: Recent months at Hervey Bay
Date/Time
EST
Wind Sea
Height
m
Swell Vis
km
Cloud Weather Temp
°C
Press
MSL
hPa
Rain since
9am
mm
Dir  Spd
kts
Gust
kts
Height
m
Period
s
Dir
11/12:30am SW 5 8 - - - - 10 Partly cloudy - 13.4 1024.1 0.4
11/12:01am SW 5 8 - - - - 10 Partly cloudy - 13.7 1023.8 0.2
11/12:00am SW 5 7 - - - - 10 Mostly cloudy Recent precip. 13.7 1023.7 0.2
 
Date/Time
EST
Wind Sea
Height
m
Swell Vis
km
Cloud Weather Temp
°C
Press
MSL
hPa
Rain since
9am
mm
Dir  Spd
kts
Gust
kts
Height
m
Period
s
Dir
10/11:46pm SSW 5 8 - - - - 5 Partly cloudy - 13.8 1023.8 0.2
10/11:30pm SW 4 6 - - - - 10 Partly cloudy - 13.6 1023.7 0.0
10/11:00pm SSW 5 6 - - - - 10 - - 13.8 1023.7 0.0
10/10:30pm SSW 6 8 - - - - 10 Partly cloudy - 14.5 1024.0 0.0
10/10:00pm SSW 6 9 - - - - 10 Partly cloudy - 14.7 1024.3 0.0
10/09:30pm SSW 6 8 - - - - 10 Partly cloudy - 14.9 1024.4 0.0
10/09:00pm SSW 8 13 - - - - 10 Mostly cloudy - 15.1 1024.3 0.0
10/08:30pm SSW 6 8 - - - - 10 Partly cloudy - 15.0 1024.2 0.0
10/08:00pm SSW 5 6 - - - - 10 Partly cloudy - 13.9 1023.9 0.0
10/07:30pm SSW 5 7 - - - - 10 - - 14.6 1023.8 0.0
10/07:00pm S 5 7 - - - - 10 - - 15.2 1023.5 0.0
10/06:30pm S 5 8 - - - - 10 Partly cloudy - 16.0 1023.3 0.0
10/06:00pm S 5 7 - - - - 10 - - 16.2 1023.0 0.0
10/05:30pm S 8 13 - - - - 10 - - 16.8 1022.7 0.0
10/05:00pm SSE 8 15 - - - - 10 - - 17.6 1022.3 0.0
10/04:30pm SSE 14 20 - - - - 10 Partly cloudy - 18.5 1022.2 0.0
10/04:00pm SSE 10 18 - - - - 10 Partly cloudy - 18.8 1022.2 0.0
10/03:30pm SSE 10 19 - - - - 10 Partly cloudy - 19.7 1022.1 0.0
10/03:00pm SSE 7 11 - - - - 10 Partly cloudy - 19.5 1022.2 0.0
10/02:30pm SSE 7 11 - - - - 10 Partly cloudy - 19.0 1022.4 0.0
10/02:00pm SE 9 14 - - - - 10 Partly cloudy - 18.3 1022.9 0.0
10/01:30pm S 11 19 - - - - 10 Partly cloudy - 20.0 1022.7 0.0
10/01:00pm S 11 15 - - - - 10 - - 19.9 1023.0 0.0
10/12:30pm S 11 17 - - - - 10 Partly cloudy - 19.5 1023.4 0.0
10/12:00pm S 10 15 - - - - 10 Partly cloudy - 20.0 1023.8 0.0
10/11:30am S 8 14 - - - - 10 Partly cloudy - 19.8 1024.0 0.0
10/11:00am S 8 13 - - - - 10 Partly cloudy - 19.5 1024.3 0.0
10/10:30am S 9 14 - - - - 10 - - 18.7 1024.5 0.0
10/10:00am SSW 9 15 - - - - 10 - - 17.9 1024.4 0.0
10/09:30am S 9 15 - - - - 10 - - 17.2 1024.4 0.0
10/09:00am S 8 11 - - - - 10 - - 15.7 1024.4 0.0
10/08:30am SSW 6 9 - - - - 10 - - 14.3 1024.3 0.0
10/08:00am SSW 6 9 - - - - 10 - - 12.3 1024.0 0.0
10/07:30am SSW 8 11 - - - - 10 - - 10.9 1023.7 0.0
10/07:00am SW 7 9 - - - - 10 - - 9.8 1023.3 0.0
10/06:30am SW 6 8 - - - - 10 - - 9.5 1022.8 0.0
10/06:00am SW 6 9 - - - - 10 - - 9.4 1022.2 0.0
10/05:30am SW 6 7 - - - - 10 - - 9.8 1021.7 0.0
10/05:00am SW 6 7 - - - - 10 Partly cloudy - 9.8 1021.3 0.0
10/04:30am SSW 6 7 - - - - 10 - - 9.8 1021.0 0.0
10/04:00am SW 5 7 - - - - 10 - - 9.9 1021.0 0.0
10/03:30am SSW 6 8 - - - - 10 Partly cloudy - 10.2 1021.1 0.0
10/03:00am SW 6 9 - - - - 10 - - 10.6 1021.1 0.0
10/02:30am SW 6 7 - - - - 10 - - 10.4 1021.2 0.0
10/02:00am SW 6 8 - - - - 10 - - 10.8 1021.2 0.0
10/01:30am SW 5 6 - - - - 10 Partly cloudy - 10.2 1021.2 0.0
10/01:00am SW 5 6 - - - - 10 - - 10.0 1021.4 0.0
10/12:30am SW 5 6 - - - - 10 - - 9.9 1021.4 0.0
10/12:00am SW 5 6 - - - - 10 - - 9.9 1021.4 0.0
 
Date/Time
EST
Wind Sea
Height
m
Swell Vis
km
Cloud Weather Temp
°C
Press
MSL
hPa
Rain since
9am
mm
Dir  Spd
kts
Gust
kts
Height
m
Period
s
Dir
09/11:30pm SW 5 5 - - - - 10 - - 9.6 1021.5 0.0
09/11:00pm SW 3 4 - - - - 10 - - 9.8 1021.6 0.0
09/10:30pm SW 2 5 - - - - 10 - - 10.1 1021.5 0.0
09/10:00pm SW 7 10 - - - - 10 - - 10.8 1021.4 0.0
09/09:30pm CALM 0 0 - - - - 10 - - 9.3 1021.1 0.0
09/09:00pm CALM 0 0 - - - - 10 - - 9.6 1021.1 0.0
09/08:30pm CALM 0 0 - - - - 10 - - 10.3 1020.9 0.0
09/08:00pm SSW 1 3 - - - - 10 - - 10.9 1020.6 0.0
09/07:30pm SSE 3 4 - - - - 10 - - 11.5 1020.4 0.0
09/07:00pm SSE 4 5 - - - - 10 - - 12.5 1020.1 0.0
09/06:30pm SE 6 8 - - - - 10 - - 16.0 1019.7 0.0
09/06:00pm SE 6 8 - - - - 10 - - 16.4 1019.2 0.0
09/05:30pm SE 6 8 - - - - 10 - - 17.0 1019.0 0.0
09/05:00pm SE 7 10 - - - - 10 - - 18.0 1018.7 0.0
09/04:30pm ESE 8 11 - - - - 10 Partly cloudy - 18.9 1018.4 0.0
09/04:00pm ESE 8 11 - - - - 10 Partly cloudy - 19.9 1017.9 0.0
09/03:30pm SE 8 13 - - - - 10 Partly cloudy - 20.1 1017.7 0.0
09/03:00pm SE 7 12 - - - - 10 Mostly clear - 20.9 1017.5 0.0
09/02:30pm SSE 7 11 - - - - 10 Partly cloudy - 20.1 1017.7 0.0
09/02:00pm SSE 5 9 - - - - 10 Partly cloudy - 20.0 1018.0 0.0
09/01:30pm S 6 10 - - - - 10 Partly cloudy - 20.9 1018.5 0.0
09/01:00pm SSE 6 10 - - - - 10 Partly cloudy - 21.2 1018.8 0.0
09/12:30pm S 7 11 - - - - 10 - - 20.7 1019.3 0.0
09/12:00pm SSE 8 13 - - - - 10 - - 20.3 1019.8 0.0
09/11:30am S 9 16 - - - - 10 - - 19.5 1020.3 0.0
09/11:00am S 8 14 - - - - 10 - - 19.3 1020.8 0.0
09/10:30am SSW 9 14 - - - - 10 - - 18.6 1021.1 0.0
09/10:00am S 9 13 - - - - 10 - - 17.5 1021.3 0.0
09/09:30am SSW 7 11 - - - - 10 - - 16.5 1021.5 0.0
09/09:00am SW 8 11 - - - - 10 - - 14.5 1021.4 0.2
09/08:30am SSW 8 10 - - - - 10 - - 12.6 1021.2 0.2
09/08:00am SSW 7 8 - - - - 10 - - 10.9 1020.9 0.2
09/07:30am SSW 6 8 - - - - 10 - - 9.6 1021.0 0.2
09/07:00am SW 5 6 - - - - 10 - - 8.6 1020.5 0.2
09/06:30am SW 5 8 - - - - 10 - - 8.2 1020.3 0.2
09/06:00am SW 5 7 - - - - 10 - - 8.0 1019.9 0.2
09/05:30am SW 6 7 - - - - 10 - - 8.2 1019.6 0.2
09/05:00am SW 6 7 - - - - 10 - - 8.3 1019.2 0.2
09/04:30am SW 5 6 - - - - 10 - - 8.3 1019.0 0.2
09/04:00am SW 5 6 - - - - 10 - - 8.5 1019.1 0.2
09/03:30am SW 6 7 - - - - 10 - - 8.7 1019.2 0.2
09/03:00am SSW 7 8 - - - - 10 - - 8.9 1019.3 0.2
09/02:30am SW 6 8 - - - - 10 - - 9.3 1019.0 0.2
09/02:00am SW 6 7 - - - - 10 - - 9.0 1019.3 0.2
09/01:30am SW 5 6 - - - - 6 - - 8.5 1019.5 0.2
09/01:00am SW 5 6 - - - - 10 - - 9.1 1019.7 0.2
09/12:30am SW 6 7 - - - - 10 - - 9.4 1019.6 0.2
09/12:00am SW 5 7 - - - - 10 - - 9.0 1019.5 0.2
 
Date/Time
EST
Wind Sea
Height
m
Swell Vis
km
Cloud Weather Temp
°C
Press
MSL
hPa
Rain since
9am
mm
Dir  Spd
kts
Gust
kts
Height
m
Period
s
Dir
08/11:30pm SW 4 5 - - - - 10 - - 8.4 1019.8 0.2
08/11:00pm SSW 1 4 - - - - 10 - - 8.4 1019.9 0.2
08/10:30pm SSW 2 6 - - - - 10 - - 8.1 1020.0 0.2
08/10:00pm CALM 0 0 - - - - 10 - - 8.4 1019.6 0.2
08/09:30pm CALM 0 0 - - - - 10 - - 8.7 1019.6 0.2
08/09:00pm CALM 0 0 - - - - 10 - - 9.1 1019.5 0.2
08/08:30pm CALM 0 0 - - - - 10 - - 9.4 1019.4 0.2
08/08:00pm CALM 0 0 - - - - 10 - - 9.8 1019.3 0.2
08/07:30pm CALM 0 0 - - - - 10 - - 10.5 1019.2 0.2
08/07:00pm SSE 3 4 - - - - 10 - - 11.3 1018.8 0.2
08/06:30pm CALM 0 2 - - - - 10 - - 12.5 1018.6 0.2
08/06:00pm SE 5 7 - - - - 10 - - 15.9 1018.2 0.2
08/05:30pm ESE 6 8 - - - - 10 - - 16.5 1017.9 0.2
08/05:00pm ESE 6 9 - - - - 10 - - 18.0 1017.6 0.2
08/04:30pm ESE 8 11 - - - - 10 - - 19.2 1017.3 0.2
08/04:00pm SE 7 11 - - - - 10 - - 19.6 1017.0 0.2
08/03:30pm SSE 8 12 - - - - 10 - - 20.1 1016.7 0.2
08/03:00pm SSE 8 13 - - - - 10 - - 20.2 1016.7 0.2
08/02:30pm SSE 9 15 - - - - 10 - - 20.1 1016.8 0.2
08/02:00pm SSE 7 14 - - - - 10 - - 20.2 1016.8 0.2
08/01:30pm S 6 11 - - - - 10 - - 20.2 1017.2 0.2
08/01:00pm S 7 11 - - - - 10 - - 20.3 1017.4 0.2
08/12:30pm SSE 10 14 - - - - 10 - - 19.5 1017.9 0.2
08/12:00pm SSW 9 14 - - - - 10 - - 19.5 1018.4 0.2
08/11:30am SSW 9 14 - - - - 10 - - 19.2 1018.8 0.2
08/11:00am S 9 13 - - - - 10 - - 18.8 1019.1 0.2
08/10:30am SSW 10 17 - - - - 10 - - 18.0 1019.6 0.0
08/10:00am SSW 10 14 - - - - 10 - - 17.2 1020.0 0.0
08/09:30am SSW 9 13 - - - - 10 - - 16.4 1020.1 0.0
08/09:00am SW 7 10 - - - - 10 - - 15.0 1020.2 0.0
08/08:30am SW 7 9 - - - - 10 - - 13.2 1020.2 0.0
08/08:00am SW 6 8 - - - - 10 - - 11.7 1020.0 0.0
08/07:30am SW 6 8 - - - - 10 - - 10.1 1019.7 0.0
08/07:00am SW 5 7 - - - - 10 - - 8.8 1019.4 0.0
08/06:30am SW 4 6 - - - - 10 - - 7.6 1019.2 0.0
08/06:00am WSW 5 6 - - - - 10 - - 7.5 1018.9 0.0
08/05:30am SW 5 6 - - - - 10 - - 7.9 1018.5 0.0
08/05:00am WSW 5 7 - - - - 10 - - 7.8 1018.1 0.0
08/04:30am SW 4 5 - - - - 10 - - 7.7 1017.9 0.0
08/04:00am SW 5 6 - - - - 10 - - 7.4 1017.5 0.0
08/03:30am SW 5 5 - - - - 10 - - 7.4 1017.5 0.0
08/03:00am SW 4 5 - - - - 10 - - 8.1 1017.7 0.0
08/02:30am SW 5 6 - - - - 10 - - 8.1 1017.6 0.0
08/02:00am SW 5 6 - - - - 10 - - 9.0 1017.7 0.0
08/01:30am SW 6 7 - - - - 10 - - 9.3 1017.8 0.0
08/01:00am SW 4 5 - - - - 10 - - 8.4 1017.9 0.0

Other formats

Comma delimited format used in spreadsheet applications
http://www.bom.gov.au/fwo/IDQ60701/IDQ60701.95565.axf

JavaScript Object Notation format (JSON) in row-major order
http://www.bom.gov.au/fwo/IDQ60701/IDQ60701.95565.json

Data quality

Most of these data are generated automatically and are frequently updated. Quality checks on data are not normally performed. It is possible for incorrect values to appear. Refer to information at About Latest Weather Observations and please check the disclaimer before using these data.